sensor_id;sensor_type;location;lat;lon;timestamp;P1;durP1;ratioP1;P2;durP2;ratioP2
72198;SDS011;72266;51.056;16.880;2024-01-30T00:02:02;16.70;;;6.00;;
72198;SDS011;72266;51.056;16.880;2024-01-30T00:04:38;17.40;;;6.60;;
72198;SDS011;72266;51.056;16.880;2024-01-30T00:07:12;18.00;;;6.70;;
72198;SDS011;72266;51.056;16.880;2024-01-30T00:09:47;20.10;;;6.50;;
72198;SDS011;72266;51.056;16.880;2024-01-30T00:12:20;19.70;;;6.90;;
72198;SDS011;72266;51.056;16.880;2024-01-30T00:14:53;18.70;;;6.50;;
72198;SDS011;72266;51.056;16.880;2024-01-30T00:17:27;16.60;;;5.50;;
72198;SDS011;72266;51.056;16.880;2024-01-30T00:20:00;17.60;;;6.60;;
72198;SDS011;72266;51.056;16.880;2024-01-30T00:22:37;18.20;;;6.50;;
72198;SDS011;72266;51.056;16.880;2024-01-30T00:25:11;15.10;;;5.90;;
72198;SDS011;72266;51.056;16.880;2024-01-30T00:27:44;17.80;;;6.20;;
72198;SDS011;72266;51.056;16.880;2024-01-30T00:30:17;17.10;;;6.50;;
72198;SDS011;72266;51.056;16.880;2024-01-30T00:32:51;14.70;;;5.60;;
72198;SDS011;72266;51.056;16.880;2024-01-30T00:35:24;14.80;;;5.60;;
72198;SDS011;72266;51.056;16.880;2024-01-30T00:37:59;17.00;;;5.40;;
72198;SDS011;72266;51.056;16.880;2024-01-30T00:40:32;19.30;;;6.60;;
72198;SDS011;72266;51.056;16.880;2024-01-30T00:43:08;16.30;;;6.10;;
72198;SDS011;72266;51.056;16.880;2024-01-30T00:45:41;19.80;;;6.90;;
72198;SDS011;72266;51.056;16.880;2024-01-30T00:48:14;18.90;;;7.30;;
72198;SDS011;72266;51.056;16.880;2024-01-30T00:50:47;22.60;;;7.80;;
72198;SDS011;72266;51.056;16.880;2024-01-30T00:53:20;17.60;;;6.30;;
72198;SDS011;72266;51.056;16.880;2024-01-30T00:55:53;22.10;;;7.90;;
72198;SDS011;72266;51.056;16.880;2024-01-30T00:58:27;18.20;;;6.90;;
72198;SDS011;72266;51.056;16.880;2024-01-30T01:01:01;18.80;;;7.40;;
72198;SDS011;72266;51.056;16.880;2024-01-30T01:03:34;19.80;;;6.70;;
72198;SDS011;72266;51.056;16.880;2024-01-30T01:06:08;17.20;;;7.60;;
72198;SDS011;72266;51.056;16.880;2024-01-30T01:08:41;19.40;;;8.30;;
72198;SDS011;72266;51.056;16.880;2024-01-30T01:11:14;23.30;;;8.90;;
72198;SDS011;72266;51.056;16.880;2024-01-30T01:13:47;24.10;;;8.40;;
72198;SDS011;72266;51.056;16.880;2024-01-30T01:16:21;19.00;;;8.00;;
72198;SDS011;72266;51.056;16.880;2024-01-30T01:18:54;18.70;;;7.00;;
72198;SDS011;72266;51.056;16.880;2024-01-30T01:21:27;17.40;;;6.60;;
72198;SDS011;72266;51.056;16.880;2024-01-30T01:24:00;16.20;;;6.50;;
72198;SDS011;72266;51.056;16.880;2024-01-30T01:26:34;16.70;;;6.30;;
72198;SDS011;72266;51.056;16.880;2024-01-30T01:29:08;13.50;;;5.30;;
72198;SDS011;72266;51.056;16.880;2024-01-30T01:31:42;15.50;;;5.10;;
72198;SDS011;72266;51.056;16.880;2024-01-30T01:34:15;15.30;;;5.10;;
72198;SDS011;72266;51.056;16.880;2024-01-30T01:36:49;15.20;;;5.20;;
72198;SDS011;72266;51.056;16.880;2024-01-30T01:39:25;13.80;;;5.10;;
72198;SDS011;72266;51.056;16.880;2024-01-30T01:41:58;13.50;;;4.80;;
72198;SDS011;72266;51.056;16.880;2024-01-30T01:44:31;14.70;;;5.50;;
72198;SDS011;72266;51.056;16.880;2024-01-30T01:47:07;14.70;;;5.20;;
72198;SDS011;72266;51.056;16.880;2024-01-30T01:49:41;14.20;;;5.70;;
72198;SDS011;72266;51.056;16.880;2024-01-30T01:52:15;14.70;;;5.90;;
72198;SDS011;72266;51.056;16.880;2024-01-30T01:54:48;14.90;;;6.00;;
72198;SDS011;72266;51.056;16.880;2024-01-30T01:57:21;16.30;;;6.00;;
72198;SDS011;72266;51.056;16.880;2024-01-30T01:59:54;19.80;;;8.20;;
72198;SDS011;72266;51.056;16.880;2024-01-30T02:02:27;20.60;;;7.40;;
72198;SDS011;72266;51.056;16.880;2024-01-30T02:05:08;20.50;;;7.60;;
72198;SDS011;72266;51.056;16.880;2024-01-30T02:07:41;18.50;;;7.20;;
72198;SDS011;72266;51.056;16.880;2024-01-30T02:10:15;15.80;;;5.70;;
72198;SDS011;72266;51.056;16.880;2024-01-30T02:12:50;15.70;;;5.80;;
72198;SDS011;72266;51.056;16.880;2024-01-30T02:15:23;18.90;;;6.70;;
72198;SDS011;72266;51.056;16.880;2024-01-30T02:17:56;14.80;;;5.70;;
72198;SDS011;72266;51.056;16.880;2024-01-30T02:20:29;18.50;;;6.20;;
72198;SDS011;72266;51.056;16.880;2024-01-30T02:23:03;17.20;;;6.60;;
72198;SDS011;72266;51.056;16.880;2024-01-30T02:25:40;19.60;;;7.20;;
72198;SDS011;72266;51.056;16.880;2024-01-30T02:28:15;20.70;;;7.40;;
72198;SDS011;72266;51.056;16.880;2024-01-30T02:30:48;17.00;;;6.60;;
72198;SDS011;72266;51.056;16.880;2024-01-30T02:33:21;15.40;;;5.80;;
72198;SDS011;72266;51.056;16.880;2024-01-30T02:35:54;17.50;;;6.50;;
72198;SDS011;72266;51.056;16.880;2024-01-30T02:38:28;16.40;;;6.30;;
72198;SDS011;72266;51.056;16.880;2024-01-30T02:41:01;14.50;;;4.80;;
72198;SDS011;72266;51.056;16.880;2024-01-30T02:43:35;15.30;;;6.00;;
72198;SDS011;72266;51.056;16.880;2024-01-30T02:46:08;18.50;;;7.60;;
72198;SDS011;72266;51.056;16.880;2024-01-30T02:48:41;18.80;;;8.00;;
72198;SDS011;72266;51.056;16.880;2024-01-30T02:51:14;15.40;;;6.20;;
72198;SDS011;72266;51.056;16.880;2024-01-30T02:53:47;17.80;;;6.40;;
72198;SDS011;72266;51.056;16.880;2024-01-30T02:56:20;18.10;;;7.30;;
72198;SDS011;72266;51.056;16.880;2024-01-30T02:58:53;19.40;;;7.20;;
72198;SDS011;72266;51.056;16.880;2024-01-30T03:01:26;23.40;;;7.60;;
72198;SDS011;72266;51.056;16.880;2024-01-30T03:04:00;22.10;;;7.60;;
72198;SDS011;72266;51.056;16.880;2024-01-30T03:06:36;17.70;;;7.50;;
72198;SDS011;72266;51.056;16.880;2024-01-30T03:09:12;16.90;;;7.20;;
72198;SDS011;72266;51.056;16.880;2024-01-30T03:11:49;19.30;;;7.70;;
72198;SDS011;72266;51.056;16.880;2024-01-30T03:14:22;24.30;;;9.40;;
72198;SDS011;72266;51.056;16.880;2024-01-30T03:16:56;18.90;;;7.80;;
72198;SDS011;72266;51.056;16.880;2024-01-30T03:19:28;17.70;;;7.60;;
72198;SDS011;72266;51.056;16.880;2024-01-30T03:22:02;21.20;;;7.50;;
72198;SDS011;72266;51.056;16.880;2024-01-30T03:24:39;19.40;;;7.40;;
72198;SDS011;72266;51.056;16.880;2024-01-30T03:27:12;19.40;;;8.10;;
72198;SDS011;72266;51.056;16.880;2024-01-30T03:29:45;18.60;;;6.50;;
72198;SDS011;72266;51.056;16.880;2024-01-30T03:32:18;18.90;;;7.20;;
72198;SDS011;72266;51.056;16.880;2024-01-30T03:34:51;19.70;;;6.90;;
72198;SDS011;72266;51.056;16.880;2024-01-30T03:37:24;17.40;;;7.30;;
72198;SDS011;72266;51.056;16.880;2024-01-30T03:39:57;18.00;;;6.90;;
72198;SDS011;72266;51.056;16.880;2024-01-30T03:42:33;23.30;;;7.20;;
72198;SDS011;72266;51.056;16.880;2024-01-30T03:45:08;17.10;;;7.30;;
72198;SDS011;72266;51.056;16.880;2024-01-30T03:47:44;20.80;;;8.10;;
72198;SDS011;72266;51.056;16.880;2024-01-30T03:50:16;15.50;;;6.70;;
72198;SDS011;72266;51.056;16.880;2024-01-30T03:52:50;17.80;;;7.70;;
72198;SDS011;72266;51.056;16.880;2024-01-30T03:55:23;18.40;;;7.20;;
72198;SDS011;72266;51.056;16.880;2024-01-30T03:57:56;16.70;;;7.30;;
72198;SDS011;72266;51.056;16.880;2024-01-30T04:00:29;18.40;;;8.00;;
72198;SDS011;72266;51.056;16.880;2024-01-30T04:03:06;22.50;;;8.60;;
72198;SDS011;72266;51.056;16.880;2024-01-30T04:05:40;18.80;;;7.20;;
72198;SDS011;72266;51.056;16.880;2024-01-30T04:08:13;17.40;;;7.70;;
72198;SDS011;72266;51.056;16.880;2024-01-30T04:10:46;21.30;;;8.10;;
72198;SDS011;72266;51.056;16.880;2024-01-30T04:13:19;21.30;;;8.50;;
72198;SDS011;72266;51.056;16.880;2024-01-30T04:15:52;18.70;;;7.90;;
72198;SDS011;72266;51.056;16.880;2024-01-30T04:18:26;21.40;;;8.50;;
72198;SDS011;72266;51.056;16.880;2024-01-30T04:20:59;119.90;;;35.70;;
72198;SDS011;72266;51.056;16.880;2024-01-30T04:23:36;62.60;;;22.50;;
72198;SDS011;72266;51.056;16.880;2024-01-30T04:26:10;29.60;;;11.90;;
72198;SDS011;72266;51.056;16.880;2024-01-30T04:28:44;37.20;;;13.20;;
72198;SDS011;72266;51.056;16.880;2024-01-30T04:31:19;29.10;;;12.20;;
72198;SDS011;72266;51.056;16.880;2024-01-30T04:33:52;25.00;;;9.60;;
72198;SDS011;72266;51.056;16.880;2024-01-30T04:36:25;23.70;;;10.40;;
72198;SDS011;72266;51.056;16.880;2024-01-30T04:38:58;22.90;;;9.40;;
72198;SDS011;72266;51.056;16.880;2024-01-30T04:41:31;24.90;;;9.20;;
72198;SDS011;72266;51.056;16.880;2024-01-30T04:44:08;26.40;;;9.30;;
72198;SDS011;72266;51.056;16.880;2024-01-30T04:46:41;27.80;;;10.30;;
72198;SDS011;72266;51.056;16.880;2024-01-30T04:49:14;29.50;;;11.60;;
72198;SDS011;72266;51.056;16.880;2024-01-30T04:51:48;21.40;;;7.70;;
72198;SDS011;72266;51.056;16.880;2024-01-30T04:54:21;23.70;;;9.80;;
72198;SDS011;72266;51.056;16.880;2024-01-30T04:56:54;30.80;;;13.30;;
72198;SDS011;72266;51.056;16.880;2024-01-30T04:59:28;24.90;;;10.80;;
72198;SDS011;72266;51.056;16.880;2024-01-30T05:02:01;26.00;;;10.70;;
72198;SDS011;72266;51.056;16.880;2024-01-30T05:04:36;21.80;;;9.20;;
72198;SDS011;72266;51.056;16.880;2024-01-30T05:07:09;28.10;;;10.60;;
72198;SDS011;72266;51.056;16.880;2024-01-30T05:09:43;40.00;;;15.20;;
72198;SDS011;72266;51.056;16.880;2024-01-30T05:12:16;36.80;;;12.60;;
72198;SDS011;72266;51.056;16.880;2024-01-30T05:14:49;31.50;;;12.00;;
72198;SDS011;72266;51.056;16.880;2024-01-30T05:17:23;25.50;;;10.60;;
72198;SDS011;72266;51.056;16.880;2024-01-30T05:19:56;28.20;;;12.10;;
72198;SDS011;72266;51.056;16.880;2024-01-30T05:22:29;28.50;;;10.80;;
72198;SDS011;72266;51.056;16.880;2024-01-30T05:25:06;29.20;;;11.40;;
72198;SDS011;72266;51.056;16.880;2024-01-30T05:27:40;32.70;;;11.80;;
72198;SDS011;72266;51.056;16.880;2024-01-30T05:30:13;29.90;;;10.40;;
72198;SDS011;72266;51.056;16.880;2024-01-30T05:32:47;36.10;;;12.80;;
72198;SDS011;72266;51.056;16.880;2024-01-30T05:35:20;26.10;;;10.80;;
72198;SDS011;72266;51.056;16.880;2024-01-30T05:37:54;30.60;;;11.30;;
72198;SDS011;72266;51.056;16.880;2024-01-30T05:40:27;27.10;;;10.80;;
72198;SDS011;72266;51.056;16.880;2024-01-30T05:43:00;26.40;;;9.80;;
72198;SDS011;72266;51.056;16.880;2024-01-30T05:45:33;21.90;;;8.10;;
72198;SDS011;72266;51.056;16.880;2024-01-30T05:48:07;17.80;;;5.70;;
72198;SDS011;72266;51.056;16.880;2024-01-30T05:50:40;17.20;;;6.70;;
72198;SDS011;72266;51.056;16.880;2024-01-30T05:53:15;18.60;;;6.40;;
72198;SDS011;72266;51.056;16.880;2024-01-30T05:55:50;20.70;;;7.50;;
72198;SDS011;72266;51.056;16.880;2024-01-30T05:58:24;22.90;;;7.80;;
72198;SDS011;72266;51.056;16.880;2024-01-30T06:00:58;17.20;;;6.70;;
72198;SDS011;72266;51.056;16.880;2024-01-30T06:03:33;22.40;;;9.20;;
72198;SDS011;72266;51.056;16.880;2024-01-30T06:06:08;23.00;;;8.40;;
72198;SDS011;72266;51.056;16.880;2024-01-30T06:08:42;20.90;;;7.40;;
72198;SDS011;72266;51.056;16.880;2024-01-30T06:11:15;23.90;;;8.30;;
72198;SDS011;72266;51.056;16.880;2024-01-30T06:13:48;18.30;;;7.20;;
72198;SDS011;72266;51.056;16.880;2024-01-30T06:16:22;22.60;;;8.40;;
72198;SDS011;72266;51.056;16.880;2024-01-30T06:18:59;23.00;;;7.70;;
72198;SDS011;72266;51.056;16.880;2024-01-30T06:21:32;22.40;;;9.40;;
72198;SDS011;72266;51.056;16.880;2024-01-30T06:24:08;24.40;;;8.70;;
72198;SDS011;72266;51.056;16.880;2024-01-30T06:26:41;23.60;;;10.20;;
72198;SDS011;72266;51.056;16.880;2024-01-30T06:29:14;25.60;;;9.80;;
72198;SDS011;72266;51.056;16.880;2024-01-30T06:31:49;21.70;;;9.80;;
72198;SDS011;72266;51.056;16.880;2024-01-30T06:34:22;19.00;;;8.10;;
72198;SDS011;72266;51.056;16.880;2024-01-30T06:36:56;25.00;;;9.60;;
72198;SDS011;72266;51.056;16.880;2024-01-30T06:39:29;22.80;;;9.10;;
72198;SDS011;72266;51.056;16.880;2024-01-30T06:42:06;22.70;;;8.30;;
72198;SDS011;72266;51.056;16.880;2024-01-30T06:44:39;19.90;;;8.20;;
72198;SDS011;72266;51.056;16.880;2024-01-30T06:47:12;20.80;;;7.40;;
72198;SDS011;72266;51.056;16.880;2024-01-30T06:49:45;20.60;;;8.70;;
72198;SDS011;72266;51.056;16.880;2024-01-30T06:52:19;22.20;;;8.30;;
72198;SDS011;72266;51.056;16.880;2024-01-30T06:54:52;24.50;;;9.80;;
72198;SDS011;72266;51.056;16.880;2024-01-30T06:57:26;22.60;;;8.80;;
72198;SDS011;72266;51.056;16.880;2024-01-30T07:00:05;22.70;;;10.10;;
72198;SDS011;72266;51.056;16.880;2024-01-30T07:02:40;22.50;;;8.30;;
72198;SDS011;72266;51.056;16.880;2024-01-30T07:05:13;19.70;;;8.00;;
72198;SDS011;72266;51.056;16.880;2024-01-30T07:07:47;24.50;;;8.50;;
72198;SDS011;72266;51.056;16.880;2024-01-30T07:10:21;19.10;;;8.30;;
72198;SDS011;72266;51.056;16.880;2024-01-30T07:12:54;19.30;;;7.80;;
72198;SDS011;72266;51.056;16.880;2024-01-30T07:15:27;21.40;;;9.30;;
72198;SDS011;72266;51.056;16.880;2024-01-30T07:18:05;20.50;;;9.00;;
72198;SDS011;72266;51.056;16.880;2024-01-30T07:20:39;19.70;;;7.80;;
72198;SDS011;72266;51.056;16.880;2024-01-30T07:23:16;19.70;;;8.10;;
72198;SDS011;72266;51.056;16.880;2024-01-30T07:25:49;19.10;;;8.80;;
72198;SDS011;72266;51.056;16.880;2024-01-30T07:28:23;19.40;;;7.80;;
72198;SDS011;72266;51.056;16.880;2024-01-30T07:30:56;15.10;;;6.30;;
72198;SDS011;72266;51.056;16.880;2024-01-30T07:33:29;17.40;;;7.00;;
72198;SDS011;72266;51.056;16.880;2024-01-30T07:36:03;20.00;;;7.70;;
72198;SDS011;72266;51.056;16.880;2024-01-30T07:38:37;21.30;;;8.40;;
72198;SDS011;72266;51.056;16.880;2024-01-30T07:41:10;14.90;;;6.30;;
72198;SDS011;72266;51.056;16.880;2024-01-30T07:43:43;17.20;;;6.10;;
72198;SDS011;72266;51.056;16.880;2024-01-30T07:46:16;19.00;;;6.40;;
72198;SDS011;72266;51.056;16.880;2024-01-30T07:48:50;15.20;;;5.50;;
72198;SDS011;72266;51.056;16.880;2024-01-30T07:51:24;20.10;;;7.10;;
72198;SDS011;72266;51.056;16.880;2024-01-30T07:53:58;17.90;;;6.90;;
72198;SDS011;72266;51.056;16.880;2024-01-30T07:56:33;18.20;;;7.60;;
72198;SDS011;72266;51.056;16.880;2024-01-30T07:59:09;19.60;;;7.40;;
72198;SDS011;72266;51.056;16.880;2024-01-30T08:01:42;19.90;;;8.00;;
72198;SDS011;72266;51.056;16.880;2024-01-30T08:04:15;20.80;;;8.80;;
72198;SDS011;72266;51.056;16.880;2024-01-30T08:06:49;21.50;;;9.20;;
72198;SDS011;72266;51.056;16.880;2024-01-30T08:09:25;16.30;;;5.80;;
72198;SDS011;72266;51.056;16.880;2024-01-30T08:11:58;21.40;;;7.10;;
72198;SDS011;72266;51.056;16.880;2024-01-30T08:14:33;50.30;;;12.40;;
72198;SDS011;72266;51.056;16.880;2024-01-30T08:17:06;64.20;;;17.10;;
72198;SDS011;72266;51.056;16.880;2024-01-30T08:19:39;138.70;;;27.00;;
72198;SDS011;72266;51.056;16.880;2024-01-30T08:22:13;64.70;;;17.00;;
72198;SDS011;72266;51.056;16.880;2024-01-30T08:24:46;49.00;;;13.30;;
72198;SDS011;72266;51.056;16.880;2024-01-30T08:27:19;31.80;;;10.60;;
72198;SDS011;72266;51.056;16.880;2024-01-30T08:29:52;23.60;;;9.00;;
72198;SDS011;72266;51.056;16.880;2024-01-30T08:32:25;16.10;;;6.90;;
72198;SDS011;72266;51.056;16.880;2024-01-30T08:34:59;18.60;;;5.50;;
72198;SDS011;72266;51.056;16.880;2024-01-30T08:37:34;14.30;;;5.10;;
72198;SDS011;72266;51.056;16.880;2024-01-30T08:40:10;17.90;;;5.70;;
72198;SDS011;72266;51.056;16.880;2024-01-30T08:42:44;15.70;;;5.30;;
72198;SDS011;72266;51.056;16.880;2024-01-30T08:45:18;20.90;;;6.80;;
72198;SDS011;72266;51.056;16.880;2024-01-30T08:47:51;35.10;;;8.10;;
72198;SDS011;72266;51.056;16.880;2024-01-30T08:50:24;69.00;;;12.10;;
72198;SDS011;72266;51.056;16.880;2024-01-30T08:52:58;80.30;;;15.20;;
72198;SDS011;72266;51.056;16.880;2024-01-30T08:55:33;57.30;;;11.40;;
72198;SDS011;72266;51.056;16.880;2024-01-30T08:58:06;112.80;;;20.00;;
72198;SDS011;72266;51.056;16.880;2024-01-30T09:00:40;77.50;;;14.80;;
72198;SDS011;72266;51.056;16.880;2024-01-30T09:03:13;67.30;;;14.70;;
72198;SDS011;72266;51.056;16.880;2024-01-30T09:05:47;71.30;;;15.20;;
72198;SDS011;72266;51.056;16.880;2024-01-30T09:08:20;54.40;;;12.00;;
72198;SDS011;72266;51.056;16.880;2024-01-30T09:10:53;33.20;;;8.30;;
72198;SDS011;72266;51.056;16.880;2024-01-30T09:13:28;40.00;;;10.20;;
72198;SDS011;72266;51.056;16.880;2024-01-30T09:16:02;27.70;;;8.80;;
72198;SDS011;72266;51.056;16.880;2024-01-30T09:18:38;25.30;;;7.70;;
72198;SDS011;72266;51.056;16.880;2024-01-30T09:21:11;20.90;;;6.40;;
72198;SDS011;72266;51.056;16.880;2024-01-30T09:23:46;24.90;;;7.10;;
72198;SDS011;72266;51.056;16.880;2024-01-30T09:26:19;21.90;;;5.90;;
72198;SDS011;72266;51.056;16.880;2024-01-30T09:28:57;31.90;;;7.30;;
72198;SDS011;72266;51.056;16.880;2024-01-30T09:31:32;22.70;;;6.90;;
72198;SDS011;72266;51.056;16.880;2024-01-30T09:34:06;27.40;;;7.30;;
72198;SDS011;72266;51.056;16.880;2024-01-30T09:36:40;27.90;;;7.00;;
72198;SDS011;72266;51.056;16.880;2024-01-30T09:39:14;26.70;;;8.40;;
72198;SDS011;72266;51.056;16.880;2024-01-30T09:41:51;24.60;;;8.20;;
72198;SDS011;72266;51.056;16.880;2024-01-30T09:44:32;19.50;;;6.00;;
72198;SDS011;72266;51.056;16.880;2024-01-30T09:47:08;15.90;;;5.50;;
72198;SDS011;72266;51.056;16.880;2024-01-30T09:49:41;15.00;;;4.30;;
72198;SDS011;72266;51.056;16.880;2024-01-30T09:52:15;15.80;;;5.20;;
72198;SDS011;72266;51.056;16.880;2024-01-30T09:54:49;17.30;;;6.20;;
72198;SDS011;72266;51.056;16.880;2024-01-30T09:57:25;15.90;;;5.30;;
72198;SDS011;72266;51.056;16.880;2024-01-30T10:00:02;18.30;;;5.40;;
72198;SDS011;72266;51.056;16.880;2024-01-30T10:02:42;11.70;;;4.60;;
72198;SDS011;72266;51.056;16.880;2024-01-30T10:05:20;15.80;;;4.50;;
72198;SDS011;72266;51.056;16.880;2024-01-30T10:07:56;19.10;;;4.90;;
72198;SDS011;72266;51.056;16.880;2024-01-30T10:10:30;15.60;;;5.10;;
72198;SDS011;72266;51.056;16.880;2024-01-30T10:13:04;11.50;;;4.20;;
72198;SDS011;72266;51.056;16.880;2024-01-30T10:15:40;18.10;;;6.30;;
72198;SDS011;72266;51.056;16.880;2024-01-30T10:18:15;13.40;;;4.70;;
72198;SDS011;72266;51.056;16.880;2024-01-30T10:20:51;14.90;;;4.40;;
72198;SDS011;72266;51.056;16.880;2024-01-30T10:23:31;14.80;;;4.40;;
72198;SDS011;72266;51.056;16.880;2024-01-30T10:26:06;17.00;;;4.70;;
72198;SDS011;72266;51.056;16.880;2024-01-30T10:28:41;11.20;;;3.80;;
72198;SDS011;72266;51.056;16.880;2024-01-30T10:31:17;15.50;;;4.50;;
72198;SDS011;72266;51.056;16.880;2024-01-30T10:33:51;11.10;;;3.90;;
72198;SDS011;72266;51.056;16.880;2024-01-30T10:36:40;13.10;;;4.80;;
72198;SDS011;72266;51.056;16.880;2024-01-30T10:39:17;15.10;;;5.00;;
72198;SDS011;72266;51.056;16.880;2024-01-30T10:41:52;17.00;;;4.40;;
72198;SDS011;72266;51.056;16.880;2024-01-30T10:44:33;15.80;;;5.20;;
72198;SDS011;72266;51.056;16.880;2024-01-30T10:47:11;13.40;;;4.30;;
72198;SDS011;72266;51.056;16.880;2024-01-30T10:49:59;13.20;;;5.00;;
72198;SDS011;72266;51.056;16.880;2024-01-30T10:52:33;13.40;;;4.50;;
72198;SDS011;72266;51.056;16.880;2024-01-30T10:55:07;13.60;;;4.80;;
72198;SDS011;72266;51.056;16.880;2024-01-30T10:57:45;12.60;;;4.70;;
72198;SDS011;72266;51.056;16.880;2024-01-30T11:00:21;13.80;;;4.30;;
72198;SDS011;72266;51.056;16.880;2024-01-30T11:02:55;18.80;;;4.80;;
72198;SDS011;72266;51.056;16.880;2024-01-30T11:08:35;14.00;;;4.50;;
72198;SDS011;72266;51.056;16.880;2024-01-30T11:11:12;19.80;;;5.10;;
72198;SDS011;72266;51.056;16.880;2024-01-30T11:14:03;18.20;;;4.80;;
72198;SDS011;72266;51.056;16.880;2024-01-30T11:16:38;12.80;;;4.10;;
72198;SDS011;72266;51.056;16.880;2024-01-30T11:19:15;17.50;;;4.80;;
72198;SDS011;72266;51.056;16.880;2024-01-30T11:21:56;10.50;;;3.40;;
72198;SDS011;72266;51.056;16.880;2024-01-30T11:24:30;13.70;;;4.30;;
72198;SDS011;72266;51.056;16.880;2024-01-30T11:27:12;10.50;;;3.90;;
72198;SDS011;72266;51.056;16.880;2024-01-30T11:29:49;13.90;;;4.00;;
72198;SDS011;72266;51.056;16.880;2024-01-30T11:32:24;12.30;;;4.00;;
72198;SDS011;72266;51.056;16.880;2024-01-30T11:34:57;17.90;;;4.20;;
72198;SDS011;72266;51.056;16.880;2024-01-30T11:37:31;13.60;;;5.00;;
72198;SDS011;72266;51.056;16.880;2024-01-30T11:40:07;11.80;;;3.90;;
72198;SDS011;72266;51.056;16.880;2024-01-30T11:42:42;16.80;;;4.70;;
72198;SDS011;72266;51.056;16.880;2024-01-30T11:45:15;16.40;;;4.70;;
72198;SDS011;72266;51.056;16.880;2024-01-30T11:47:50;12.70;;;4.90;;
72198;SDS011;72266;51.056;16.880;2024-01-30T11:50:24;13.20;;;5.20;;
72198;SDS011;72266;51.056;16.880;2024-01-30T11:52:57;14.80;;;4.50;;
72198;SDS011;72266;51.056;16.880;2024-01-30T11:55:31;16.10;;;5.30;;
72198;SDS011;72266;51.056;16.880;2024-01-30T11:58:07;13.40;;;4.20;;
72198;SDS011;72266;51.056;16.880;2024-01-30T12:00:40;10.70;;;4.10;;
72198;SDS011;72266;51.056;16.880;2024-01-30T12:03:13;10.90;;;3.90;;
72198;SDS011;72266;51.056;16.880;2024-01-30T12:05:47;12.30;;;4.20;;
72198;SDS011;72266;51.056;16.880;2024-01-30T12:08:29;17.70;;;5.70;;
72198;SDS011;72266;51.056;16.880;2024-01-30T12:11:02;16.20;;;5.50;;
72198;SDS011;72266;51.056;16.880;2024-01-30T12:13:37;13.30;;;5.30;;
72198;SDS011;72266;51.056;16.880;2024-01-30T12:16:10;13.30;;;4.40;;
72198;SDS011;72266;51.056;16.880;2024-01-30T12:18:44;13.40;;;4.00;;
72198;SDS011;72266;51.056;16.880;2024-01-30T12:21:17;13.80;;;4.00;;
72198;SDS011;72266;51.056;16.880;2024-01-30T12:23:52;15.70;;;4.80;;
72198;SDS011;72266;51.056;16.880;2024-01-30T12:26:25;13.30;;;4.30;;
72198;SDS011;72266;51.056;16.880;2024-01-30T12:28:58;12.40;;;4.50;;
72198;SDS011;72266;51.056;16.880;2024-01-30T12:31:33;10.60;;;3.40;;
72198;SDS011;72266;51.056;16.880;2024-01-30T12:34:08;13.90;;;4.30;;
72198;SDS011;72266;51.056;16.880;2024-01-30T12:36:44;13.60;;;4.40;;
72198;SDS011;72266;51.056;16.880;2024-01-30T12:39:17;15.00;;;4.60;;
72198;SDS011;72266;51.056;16.880;2024-01-30T12:41:51;20.20;;;4.90;;
72198;SDS011;72266;51.056;16.880;2024-01-30T12:44:24;12.70;;;4.00;;
72198;SDS011;72266;51.056;16.880;2024-01-30T12:46:57;15.90;;;5.70;;
72198;SDS011;72266;51.056;16.880;2024-01-30T12:49:30;19.10;;;6.70;;
72198;SDS011;72266;51.056;16.880;2024-01-30T12:52:06;20.30;;;6.70;;
72198;SDS011;72266;51.056;16.880;2024-01-30T12:54:40;17.00;;;5.60;;
72198;SDS011;72266;51.056;16.880;2024-01-30T12:57:13;14.00;;;4.80;;
72198;SDS011;72266;51.056;16.880;2024-01-30T12:59:46;14.20;;;4.60;;
72198;SDS011;72266;51.056;16.880;2024-01-30T13:02:20;15.80;;;4.60;;
72198;SDS011;72266;51.056;16.880;2024-01-30T13:04:53;13.60;;;4.60;;
72198;SDS011;72266;51.056;16.880;2024-01-30T13:07:28;11.90;;;3.90;;
72198;SDS011;72266;51.056;16.880;2024-01-30T13:10:01;11.50;;;4.40;;
72198;SDS011;72266;51.056;16.880;2024-01-30T13:12:38;16.50;;;4.90;;
72198;SDS011;72266;51.056;16.880;2024-01-30T13:15:15;15.20;;;4.40;;
72198;SDS011;72266;51.056;16.880;2024-01-30T13:17:51;16.60;;;5.90;;
72198;SDS011;72266;51.056;16.880;2024-01-30T13:20:25;13.90;;;5.10;;
72198;SDS011;72266;51.056;16.880;2024-01-30T13:22:59;14.60;;;5.20;;
72198;SDS011;72266;51.056;16.880;2024-01-30T13:25:32;24.60;;;5.50;;
72198;SDS011;72266;51.056;16.880;2024-01-30T13:28:07;18.40;;;5.20;;
72198;SDS011;72266;51.056;16.880;2024-01-30T13:30:40;14.70;;;5.50;;
72198;SDS011;72266;51.056;16.880;2024-01-30T13:33:13;15.40;;;5.30;;
72198;SDS011;72266;51.056;16.880;2024-01-30T13:35:48;12.60;;;4.90;;
72198;SDS011;72266;51.056;16.880;2024-01-30T13:38:22;14.30;;;5.00;;
72198;SDS011;72266;51.056;16.880;2024-01-30T13:40:55;24.20;;;7.10;;
72198;SDS011;72266;51.056;16.880;2024-01-30T13:43:28;27.80;;;10.60;;
72198;SDS011;72266;51.056;16.880;2024-01-30T13:46:02;24.90;;;8.20;;
72198;SDS011;72266;51.056;16.880;2024-01-30T13:48:38;24.90;;;8.00;;
72198;SDS011;72266;51.056;16.880;2024-01-30T13:51:11;25.90;;;6.90;;
72198;SDS011;72266;51.056;16.880;2024-01-30T13:53:46;21.00;;;6.90;;
72198;SDS011;72266;51.056;16.880;2024-01-30T13:59:44;28.00;;;7.00;;
72198;SDS011;72266;51.056;16.880;2024-01-30T14:03:08;18.10;;;6.80;;
72198;SDS011;72266;51.056;16.880;2024-01-30T14:05:46;18.60;;;6.60;;
72198;SDS011;72266;51.056;16.880;2024-01-30T14:08:34;26.90;;;7.30;;
72198;SDS011;72266;51.056;16.880;2024-01-30T14:11:13;26.20;;;7.70;;
72198;SDS011;72266;51.056;16.880;2024-01-30T14:13:46;25.40;;;7.90;;
72198;SDS011;72266;51.056;16.880;2024-01-30T14:16:20;27.40;;;8.00;;
72198;SDS011;72266;51.056;16.880;2024-01-30T14:18:56;28.50;;;9.40;;
72198;SDS011;72266;51.056;16.880;2024-01-30T14:21:30;29.00;;;8.80;;
72198;SDS011;72266;51.056;16.880;2024-01-30T14:24:08;32.20;;;10.60;;
72198;SDS011;72266;51.056;16.880;2024-01-30T14:26:42;32.40;;;11.80;;
72198;SDS011;72266;51.056;16.880;2024-01-30T14:29:21;31.10;;;12.10;;
72198;SDS011;72266;51.056;16.880;2024-01-30T14:31:56;43.50;;;13.00;;
72198;SDS011;72266;51.056;16.880;2024-01-30T14:34:30;27.50;;;10.40;;
72198;SDS011;72266;51.056;16.880;2024-01-30T14:37:06;22.10;;;9.00;;
72198;SDS011;72266;51.056;16.880;2024-01-30T14:39:44;28.30;;;10.30;;
72198;SDS011;72266;51.056;16.880;2024-01-30T14:42:19;28.70;;;12.70;;
72198;SDS011;72266;51.056;16.880;2024-01-30T14:44:53;32.40;;;11.50;;
72198;SDS011;72266;51.056;16.880;2024-01-30T14:47:27;28.60;;;10.30;;
72198;SDS011;72266;51.056;16.880;2024-01-30T14:50:01;28.90;;;10.20;;
72198;SDS011;72266;51.056;16.880;2024-01-30T14:52:41;33.10;;;10.30;;
72198;SDS011;72266;51.056;16.880;2024-01-30T14:55:16;34.70;;;12.20;;
72198;SDS011;72266;51.056;16.880;2024-01-30T14:57:49;30.70;;;12.40;;
72198;SDS011;72266;51.056;16.880;2024-01-30T15:00:23;26.80;;;10.70;;
72198;SDS011;72266;51.056;16.880;2024-01-30T15:02:57;25.50;;;10.80;;
72198;SDS011;72266;51.056;16.880;2024-01-30T15:05:32;32.20;;;11.50;;
72198;SDS011;72266;51.056;16.880;2024-01-30T15:08:09;30.10;;;10.60;;